Airfield :
LOGIN :

Register | Disclaimer

   EN    FR    IT 

 










Legend :    VFR   Marginal VFR   IFR   Intensive IFR   Very Intensive IFR
Visi :
Ceiling :
>= 8 km
>= 3000ft
5 to 8 km
1000 to 3000 ft
1500m to 5 km
500 to 1000 ft
800 to 1500m
200 to 500 ft
< 800m
< 200 ft
Symbols :   Thunderstorms  Fog  Heavy snow  Heavy precipitations  Wind > 20 kt
SIGMETs :     Misc.  Thunderstorms  Icing  Turbulence  Mountain Waves  Volcanic Ashes






- Airport Elevation : 779 ft
- IATA code : CMF


LFLB - Chambery / Aix-Les-Bains

CURRENT METAR :
  • 040230Z AUTO 18002KT 9999 FEW078 14/11 Q1021 NOSIG

EXPIRED METARs :
  • 040200Z AUTO VRB02KT CAVOK 14/11 Q1021 NOSIG
  • 040130Z AUTO 16003KT CAVOK 14/10 Q1021 NOSIG
  • 040100Z AUTO 17004KT 140V200 CAVOK 15/10 Q1020 NOSIG
  • 040030Z AUTO 01008KT CAVOK 18/12 Q1020 NOSIG
  • 040000Z AUTO 35007KT CAVOK 18/11 Q1020 NOSIG

TAF TAF LFLB
Valid from the 04 at 00:00 until the 05 at 00:00 UTC


032300Z 0400/0424 01005KT CAVOK
BECMG 0402/0404 VRB02KT
BECMG 0407/0409 36008KT
BECMG 0418/0420 VRB02KT



MET'MAP, your aeronautical weather chart ! - Copyright ORBIFLY December 2007 - Disclaimer

ORBIFLY MET'MAP TEAM :

Programming & Development : Alexandra Zaïnal
Concept & original design : Baudouin d'Aumeries
Assistance for programming : Marc-Olivier Méhu
Technical & hardware support : Manuel Goepfert

Contact : metmap@orbifly.com




SOURCES & CREDITS :

   NOAA